Main page
METAR-TAF:

METAR-TAF

Airports :

Diepholz Air Base

Diepholz, Germany

latitude: 52-35N, longitude: 008-21E, elevation: 39 m

Current weather observation

The report was made 2 hours and 48 minutes ago, at 13:20 UTC
Wind 8 kt from the North
Temperature 17°C
Humidity 42%
Pressure 1032 hPa
Visibility 10 km or more
Few clouds at a height of 5000 ft
Scattered clouds at a height of 27000 ft

METAR: ETND 281320Z 01008KT 9999 FEW050 SCT270 17/04 Q1032 BLU+

Time: 18:08 (16:08 UTC)

Forecast

The report was made 6 hours and 8 minutes ago, at 10:00 UTC
Forecast valid from 28 at 11 UTC to 28 at 20 UTC
Wind 10 kt from the North
Visibility 10 km or more
Few clouds at a height of 3000 ft
Scattered clouds at a height of 26000 ft

TAF: ETND 281000Z 2811/2820 35010KT 9999 NSW FEW030 SCT260 BY ETGL

Weather observations and forecasts of more than 4000 airports (METAR and TAF reports).

The available stations are represented by yellow and red dots on the map.

Hover mouse over dot to see the name of the station.

Then click to see weather observations and forecasts.

To change the map : click on the green buttons with a black cross to zoom in, on the green button with a dash to zoom out, or on the green arrows for adjacent maps.


METAR-TAF: